createdAt,value
2018-07-24T00:01:50.721Z,84.40
2018-07-24T00:11:53.737Z,84.20
2018-07-24T00:21:56.780Z,84.70
2018-07-24T00:31:59.794Z,85.10
2018-07-24T00:42:03.030Z,85.30
2018-07-24T00:52:06.434Z,85.40
2018-07-24T01:02:09.560Z,86.10
2018-07-24T01:12:12.633Z,86.40
2018-07-24T01:22:15.657Z,86.80
2018-07-24T01:32:18.706Z,87.40
2018-07-24T01:42:21.726Z,87.20
2018-07-24T01:52:24.747Z,88.00
2018-07-24T02:02:27.872Z,88.00
2018-07-24T02:22:33.809Z,87.70
2018-07-24T02:32:36.860Z,88.40
2018-07-24T02:42:39.964Z,88.70
2018-07-24T02:52:42.983Z,88.80
2018-07-24T03:02:46.115Z,89.30
2018-07-24T03:22:51.992Z,90.00
2018-07-24T03:32:55.031Z,90.40
2018-07-24T03:42:58.059Z,90.60
2018-07-24T03:53:01.079Z,90.80
2018-07-24T04:03:08.852Z,90.60
2018-07-24T04:13:11.878Z,91.20
2018-07-24T04:23:14.910Z,90.90
2018-07-24T04:33:17.930Z,91.10
2018-07-24T04:43:20.947Z,91.30
2018-07-24T04:53:23.960Z,91.90
2018-07-24T05:13:29.807Z,92.10
2018-07-24T05:23:32.880Z,94.60
2018-07-24T05:33:35.907Z,96.80
2018-07-24T05:43:40.024Z,99.90
2018-07-24T05:53:43.088Z,98.10
2018-07-24T06:03:46.664Z,98.00
2018-07-24T06:13:49.833Z,97.00
2018-07-24T06:23:52.864Z,97.30
2018-07-24T06:33:55.890Z,96.60
2018-07-24T06:43:59.159Z,96.60
2018-07-24T06:54:05.990Z,95.70
2018-07-24T07:04:09.034Z,94.10
2018-07-24T07:14:12.110Z,94.00
2018-07-24T07:24:15.190Z,93.70
2018-07-24T07:34:18.202Z,93.30
2018-07-24T07:44:21.848Z,93.20
2018-07-24T07:54:24.886Z,90.80
2018-07-24T08:04:27.966Z,91.30
2018-07-24T08:14:30.996Z,91.20
2018-07-24T08:24:34.020Z,88.90
2018-07-24T08:34:37.063Z,86.80
2018-07-24T08:44:40.210Z,89.10
2018-07-24T08:54:43.860Z,90.00
2018-07-24T09:04:46.787Z,89.80
2018-07-24T09:14:49.809Z,90.80
2018-07-24T09:34:58.055Z,86.40
2018-07-24T09:45:01.098Z,84.70
2018-07-24T09:55:09.043Z,81.90
2018-07-24T10:25:17.768Z,81.60
2018-07-24T10:35:20.779Z,82.40
2018-07-24T10:45:23.786Z,83.50
2018-07-24T10:55:26.794Z,76.50
2018-07-24T11:05:29.809Z,75.70
2018-07-24T11:15:32.830Z,70.80
2018-07-24T11:25:35.842Z,71.40
2018-07-24T11:35:38.948Z,68.80
2018-07-24T11:45:42.803Z,67.00
2018-07-24T12:05:48.667Z,66.30
2018-07-24T12:15:51.682Z,67.40
2018-07-24T12:25:54.694Z,63.90
2018-07-24T12:35:57.712Z,64.20
2018-07-24T12:46:06.039Z,63.60
2018-07-24T12:56:10.140Z,63.10
2018-07-24T13:06:13.153Z,64.20
2018-07-24T13:16:16.171Z,64.20
2018-07-24T13:26:19.195Z,56.80
2018-07-24T13:36:22.262Z,62.20
2018-07-24T13:46:25.506Z,59.40
2018-07-24T13:56:28.530Z,57.20
2018-07-24T14:06:31.546Z,59.30
2018-07-24T14:16:34.555Z,58.10
2018-07-24T14:26:37.571Z,57.80
2018-07-24T14:36:40.619Z,57.50
2018-07-24T14:46:43.631Z,57.00
2018-07-24T14:56:46.634Z,55.40
2018-07-24T15:06:53.555Z,55.00
2018-07-24T15:16:56.600Z,55.60
2018-07-24T15:26:59.599Z,55.90
